Lake Edwards, Minnesota
Current Conditions -  °F | °C
As of 2:53 PM on Tuesday 21 Oct 2014 (Local Time) from KBRD Reporting Station
Clear Clear  
Wind Chill: 53°   Ceiling: Unl
Heat Index: 53°   Visibility: 10mi
Dew Point: 39°   Wind: 7mph
Humidity: 59%   Direction: NA
Pressure: 30.11"   Gusts: 18mph
Location:  46.5121°N, 94.2802°W
Report Text: KBRD 211953Z AUTO VRB06G16KT 10SM CLR 12/04 A3011 RMK AO2 SLP209 T01170039
Loading
Personal Weather Stations






























Interactive Weather Map
Tropical Storm Tracking
New forecast layout! Learn more

10-Day Weather Forecast

Advertisements
Track Severe Weather on mobile